sensor_id;sensor_type;location;lat;lon;timestamp;pressure;altitude;pressure_sealevel;temperature;humidity
36378;BME280;22402;42.746;23.606;2022-11-15T00:02:02;94015.94;;;6.19;97.03
36378;BME280;22402;42.746;23.606;2022-11-15T00:04:28;94014.28;;;6.18;96.94
36378;BME280;22402;42.746;23.606;2022-11-15T00:06:53;94014.63;;;6.13;97.46
36378;BME280;22402;42.746;23.606;2022-11-15T00:09:18;94008.91;;;6.08;96.93
36378;BME280;22402;42.746;23.606;2022-11-15T00:11:43;94010.34;;;6.12;97.36
36378;BME280;22402;42.746;23.606;2022-11-15T00:14:09;94007.88;;;6.10;96.97
36378;BME280;22402;42.746;23.606;2022-11-15T00:16:34;94009.53;;;6.11;97.13
36378;BME280;22402;42.746;23.606;2022-11-15T00:18:59;94009.53;;;6.11;97.45
36378;BME280;22402;42.746;23.606;2022-11-15T00:21:24;94015.44;;;6.13;96.84
36378;BME280;22402;42.746;23.606;2022-11-15T00:23:49;94013.78;;;6.12;97.17
36378;BME280;22402;42.746;23.606;2022-11-15T00:26:15;94013.78;;;6.12;96.96
36378;BME280;22402;42.746;23.606;2022-11-15T00:28:40;94013.16;;;6.09;96.92
36378;BME280;22402;42.746;23.606;2022-11-15T00:31:07;94008.50;;;6.01;96.97
36378;BME280;22402;42.746;23.606;2022-11-15T00:33:33;94009.22;;;6.03;97.39
36378;BME280;22402;42.746;23.606;2022-11-15T00:36:02;94008.50;;;6.01;96.80
36378;BME280;22402;42.746;23.606;2022-11-15T00:38:35;93996.69;;;5.97;97.46
36378;BME280;22402;42.746;23.606;2022-11-15T00:41:00;93996.16;;;5.92;97.37
36378;BME280;22402;42.746;23.606;2022-11-15T00:43:26;93998.97;;;5.89;97.46
36378;BME280;22402;42.746;23.606;2022-11-15T00:45:51;93987.13;;;5.85;97.16
36378;BME280;22402;42.746;23.606;2022-11-15T00:48:16;93985.91;;;5.78;97.33
36378;BME280;22402;42.746;23.606;2022-11-15T00:50:41;93987.22;;;5.70;98.24
36378;BME280;22402;42.746;23.606;2022-11-15T00:53:07;93986.50;;;5.68;98.92
36378;BME280;22402;42.746;23.606;2022-11-15T00:55:32;93985.03;;;5.64;98.79
36378;BME280;22402;42.746;23.606;2022-11-15T00:57:57;93986.06;;;5.62;99.63
36378;BME280;22402;42.746;23.606;2022-11-15T01:00:22;93979.03;;;5.64;98.96
36378;BME280;22402;42.746;23.606;2022-11-15T01:02:47;93991.69;;;5.68;99.41
36378;BME280;22402;42.746;23.606;2022-11-15T01:05:13;93986.72;;;5.65;99.17
36378;BME280;22402;42.746;23.606;2022-11-15T01:07:38;93978.22;;;5.63;98.97
36378;BME280;22402;42.746;23.606;2022-11-15T01:10:04;93985.03;;;5.64;98.97
36378;BME280;22402;42.746;23.606;2022-11-15T01:12:29;93978.97;;;5.65;98.89
36378;BME280;22402;42.746;23.606;2022-11-15T01:14:54;93985.03;;;5.64;98.50
36378;BME280;22402;42.746;23.606;2022-11-15T01:17:19;93994.69;;;5.62;98.64
36378;BME280;22402;42.746;23.606;2022-11-15T01:19:44;93984.34;;;5.62;99.27
36378;BME280;22402;42.746;23.606;2022-11-15T01:22:10;93982.44;;;5.64;98.57
36378;BME280;22402;42.746;23.606;2022-11-15T01:24:35;93983.41;;;5.63;98.15
36378;BME280;22402;42.746;23.606;2022-11-15T01:27:00;93979.25;;;5.61;97.74
36378;BME280;22402;42.746;23.606;2022-11-15T01:29:25;93980.28;;;5.58;97.79
36378;BME280;22402;42.746;23.606;2022-11-15T01:31:52;93989.91;;;5.56;97.53
36378;BME280;22402;42.746;23.606;2022-11-15T01:34:17;93983.25;;;5.52;97.65
36378;BME280;22402;42.746;23.606;2022-11-15T01:36:42;93983.38;;;5.51;98.36
36378;BME280;22402;42.746;23.606;2022-11-15T01:39:08;93979.44;;;5.45;98.35
36378;BME280;22402;42.746;23.606;2022-11-15T01:41:33;93979.84;;;5.39;98.49
36378;BME280;22402;42.746;23.606;2022-11-15T01:46:42;93974.81;;;5.23;98.15
36378;BME280;22402;42.746;23.606;2022-11-15T01:49:20;93981.00;;;5.20;98.43
36378;BME280;22402;42.746;23.606;2022-11-15T01:51:46;93975.03;;;5.20;98.40
36378;BME280;22402;42.746;23.606;2022-11-15T01:54:13;93984.00;;;5.14;98.58
36378;BME280;22402;42.746;23.606;2022-11-15T01:56:44;93977.66;;;5.06;97.84
36378;BME280;22402;42.746;23.606;2022-11-15T01:59:10;93973.75;;;5.00;97.77
36378;BME280;22402;42.746;23.606;2022-11-15T02:01:35;93975.47;;;4.99;97.85
36378;BME280;22402;42.746;23.606;2022-11-15T02:04:03;93970.22;;;5.01;97.80
36378;BME280;22402;42.746;23.606;2022-11-15T02:06:30;93972.06;;;4.99;98.95
36378;BME280;22402;42.746;23.606;2022-11-15T02:08:56;93964.31;;;4.99;98.17
36378;BME280;22402;42.746;23.606;2022-11-15T02:11:21;93973.75;;;5.00;98.05
36378;BME280;22402;42.746;23.606;2022-11-15T02:13:47;93971.03;;;5.01;98.01
36378;BME280;22402;42.746;23.606;2022-11-15T02:18:49;93969.19;;;5.03;98.76
36378;BME280;22402;42.746;23.606;2022-11-15T02:21:19;93972.59;;;5.04;98.05
36378;BME280;22402;42.746;23.606;2022-11-15T02:29:06;93957.69;;;4.95;98.96
36378;BME280;22402;42.746;23.606;2022-11-15T02:39:18;93962.50;;;4.87;99.33
36378;BME280;22402;42.746;23.606;2022-11-15T02:41:47;93955.50;;;4.89;98.94
36378;BME280;22402;42.746;23.606;2022-11-15T02:44:21;93954.56;;;4.90;99.49
36378;BME280;22402;42.746;23.606;2022-11-15T02:46:49;93957.06;;;4.91;98.83
36378;BME280;22402;42.746;23.606;2022-11-15T02:49:16;93956.25;;;4.91;99.63
36378;BME280;22402;42.746;23.606;2022-11-15T02:51:42;93960.47;;;4.92;100.00
36378;BME280;22402;42.746;23.606;2022-11-15T02:54:12;93962.13;;;4.93;99.24
36378;BME280;22402;42.746;23.606;2022-11-15T02:56:38;93964.69;;;4.93;99.64
36378;BME280;22402;42.746;23.606;2022-11-15T03:02:03;93971.75;;;4.91;99.15
36378;BME280;22402;42.746;23.606;2022-11-15T03:04:28;93963.34;;;4.87;99.02
36378;BME280;22402;42.746;23.606;2022-11-15T03:07:05;93959.09;;;4.86;98.20
36378;BME280;22402;42.746;23.606;2022-11-15T03:09:42;93959.19;;;4.85;97.61
36378;BME280;22402;42.746;23.606;2022-11-15T03:12:12;93964.53;;;4.82;98.29
36378;BME280;22402;42.746;23.606;2022-11-15T03:14:43;93961.13;;;4.81;97.76
36378;BME280;22402;42.746;23.606;2022-11-15T03:17:22;93959.78;;;4.75;97.75
36378;BME280;22402;42.746;23.606;2022-11-15T03:19:58;93968.84;;;4.68;97.77
36378;BME280;22402;42.746;23.606;2022-11-15T03:22:25;93970.69;;;4.66;98.53
36378;BME280;22402;42.746;23.606;2022-11-15T03:24:59;93973.28;;;4.66;97.73
36378;BME280;22402;42.746;23.606;2022-11-15T03:27:27;93962.94;;;4.66;97.80
36378;BME280;22402;42.746;23.606;2022-11-15T03:29:54;93954.47;;;4.64;97.78
36378;BME280;22402;42.746;23.606;2022-11-15T03:32:25;93955.38;;;4.63;96.76
36378;BME280;22402;42.746;23.606;2022-11-15T03:34:52;93953.00;;;4.60;96.14
36378;BME280;22402;42.746;23.606;2022-11-15T03:37:20;93952.28;;;4.58;96.38
36378;BME280;22402;42.746;23.606;2022-11-15T03:39:46;93952.44;;;4.55;95.72
36378;BME280;22402;42.746;23.606;2022-11-15T03:44:42;93950.16;;;4.50;95.88
36378;BME280;22402;42.746;23.606;2022-11-15T03:50:03;93954.59;;;4.48;96.59
36378;BME280;22402;42.746;23.606;2022-11-15T03:52:31;93949.53;;;4.47;97.24
36378;BME280;22402;42.746;23.606;2022-11-15T03:54:57;93945.38;;;4.44;97.74
36378;BME280;22402;42.746;23.606;2022-11-15T03:57:25;93946.41;;;4.42;97.52
36378;BME280;22402;42.746;23.606;2022-11-15T03:59:50;93941.44;;;4.39;98.30
36378;BME280;22402;42.746;23.606;2022-11-15T04:02:16;93939.78;;;4.38;98.98
36378;BME280;22402;42.746;23.606;2022-11-15T04:04:41;93942.44;;;4.36;99.38
36378;BME280;22402;42.746;23.606;2022-11-15T04:07:06;93936.66;;;4.32;98.57
36378;BME280;22402;42.746;23.606;2022-11-15T04:09:31;93931.66;;;4.29;98.99
36378;BME280;22402;42.746;23.606;2022-11-15T04:11:57;93924.00;;;4.28;98.67
36378;BME280;22402;42.746;23.606;2022-11-15T04:14:22;93924.31;;;4.23;99.02
36378;BME280;22402;42.746;23.606;2022-11-15T04:16:47;93926.34;;;4.18;98.11
36378;BME280;22402;42.746;23.606;2022-11-15T04:19:12;93921.81;;;4.07;98.32
36378;BME280;22402;42.746;23.606;2022-11-15T04:21:38;93929.41;;;3.96;97.87
36378;BME280;22402;42.746;23.606;2022-11-15T04:24:03;93920.38;;;3.89;99.06
36378;BME280;22402;42.746;23.606;2022-11-15T04:26:28;93918.91;;;3.85;100.00
36378;BME280;22402;42.746;23.606;2022-11-15T04:28:53;93914.75;;;3.82;100.00
36378;BME280;22402;42.746;23.606;2022-11-15T04:31:19;93918.34;;;3.80;100.00
36378;BME280;22402;42.746;23.606;2022-11-15T04:33:44;93914.94;;;3.79;100.00
36378;BME280;22402;42.746;23.606;2022-11-15T04:36:09;93914.88;;;3.81;100.00
36378;BME280;22402;42.746;23.606;2022-11-15T04:38:35;93912.19;;;3.82;99.93
36378;BME280;22402;42.746;23.606;2022-11-15T04:41:00;93906.28;;;3.80;99.99
36378;BME280;22402;42.746;23.606;2022-11-15T04:43:25;93907.03;;;3.82;99.91
36378;BME280;22402;42.746;23.606;2022-11-15T04:45:51;93910.53;;;3.81;99.13
36378;BME280;22402;42.746;23.606;2022-11-15T04:48:16;93918.34;;;3.80;99.00
36378;BME280;22402;42.746;23.606;2022-11-15T04:50:41;93914.13;;;3.79;97.87
36378;BME280;22402;42.746;23.606;2022-11-15T04:53:06;93916.06;;;3.75;98.19
36378;BME280;22402;42.746;23.606;2022-11-15T04:55:32;93908.41;;;3.74;97.92
36378;BME280;22402;42.746;23.606;2022-11-15T04:58:00;93910.16;;;3.73;97.23
36378;BME280;22402;42.746;23.606;2022-11-15T05:00:26;93907.75;;;3.70;97.90
36378;BME280;22402;42.746;23.606;2022-11-15T05:02:51;93907.94;;;3.67;97.06
36378;BME280;22402;42.746;23.606;2022-11-15T05:05:17;93916.63;;;3.66;96.99
36378;BME280;22402;42.746;23.606;2022-11-15T05:07:42;93916.63;;;3.66;97.03
36378;BME280;22402;42.746;23.606;2022-11-15T05:10:07;93913.09;;;3.67;97.25
36378;BME280;22402;42.746;23.606;2022-11-15T05:12:32;93911.47;;;3.66;97.94
36378;BME280;22402;42.746;23.606;2022-11-15T05:14:58;93915.69;;;3.67;97.87
36378;BME280;22402;42.746;23.606;2022-11-15T05:17:23;93915.69;;;3.67;98.17
36378;BME280;22402;42.746;23.606;2022-11-15T05:19:48;93918.25;;;3.67;98.39
36378;BME280;22402;42.746;23.606;2022-11-15T05:22:13;93918.25;;;3.67;98.42
36378;BME280;22402;42.746;23.606;2022-11-15T05:24:38;93919.91;;;3.68;98.95
36378;BME280;22402;42.746;23.606;2022-11-15T05:27:04;93919.72;;;3.71;99.38
36378;BME280;22402;42.746;23.606;2022-11-15T05:29:29;93914.56;;;3.71;99.95
36378;BME280;22402;42.746;23.606;2022-11-15T05:31:54;93919.66;;;3.73;100.00
36378;BME280;22402;42.746;23.606;2022-11-15T05:34:19;93923.06;;;3.73;100.00
36378;BME280;22402;42.746;23.606;2022-11-15T05:36:45;93925.53;;;3.75;100.00
36378;BME280;22402;42.746;23.606;2022-11-15T05:39:10;93919.34;;;3.77;100.00
36378;BME280;22402;42.746;23.606;2022-11-15T05:42:18;93921.03;;;3.78;100.00
36378;BME280;22402;42.746;23.606;2022-11-15T05:44:24;93922.69;;;3.79;100.00
36378;BME280;22402;42.746;23.606;2022-11-15T05:46:50;93926.00;;;3.81;100.00
36378;BME280;22402;42.746;23.606;2022-11-15T05:49:17;93920.22;;;3.78;100.00
36378;BME280;22402;42.746;23.606;2022-11-15T05:51:43;93932.63;;;3.85;100.00
36378;BME280;22402;42.746;23.606;2022-11-15T05:54:10;93928.09;;;3.89;100.00
36378;BME280;22402;42.746;23.606;2022-11-15T05:56:35;93930.59;;;3.91;100.00
36378;BME280;22402;42.746;23.606;2022-11-15T05:59:00;93933.19;;;3.91;100.00
36378;BME280;22402;42.746;23.606;2022-11-15T06:01:26;93923.88;;;3.88;100.00
36378;BME280;22402;42.746;23.606;2022-11-15T06:03:51;93920.84;;;3.81;100.00
36378;BME280;22402;42.746;23.606;2022-11-15T06:06:16;93920.22;;;3.78;100.00
36378;BME280;22402;42.746;23.606;2022-11-15T06:08:42;93917.53;;;3.79;100.00
36378;BME280;22402;42.746;23.606;2022-11-15T06:11:07;93926.00;;;3.81;100.00
36378;BME280;22402;42.746;23.606;2022-11-15T06:13:32;93927.84;;;3.79;100.00
36378;BME280;22402;42.746;23.606;2022-11-15T06:15:57;93933.09;;;3.78;100.00
36378;BME280;22402;42.746;23.606;2022-11-15T06:18:23;93928.03;;;3.76;100.00
36378;BME280;22402;42.746;23.606;2022-11-15T06:20:48;93926.38;;;3.75;100.00
36378;BME280;22402;42.746;23.606;2022-11-15T06:23:13;93940.00;;;3.77;100.00
36378;BME280;22402;42.746;23.606;2022-11-15T06:25:38;93936.50;;;3.78;100.00
36378;BME280;22402;42.746;23.606;2022-11-15T06:28:03;93938.97;;;3.80;100.00
36378;BME280;22402;42.746;23.606;2022-11-15T06:30:29;93941.31;;;3.84;100.00
36378;BME280;22402;42.746;23.606;2022-11-15T06:33:01;93937.72;;;3.87;100.00
36378;BME280;22402;42.746;23.606;2022-11-15T06:35:27;93934.38;;;3.85;100.00
36378;BME280;22402;42.746;23.606;2022-11-15T06:37:52;93931.69;;;3.86;100.00
36378;BME280;22402;42.746;23.606;2022-11-15T06:40:17;93928.22;;;3.87;100.00
36378;BME280;22402;42.746;23.606;2022-11-15T06:42:43;93936.78;;;3.88;100.00
36378;BME280;22402;42.746;23.606;2022-11-15T06:45:08;93929.13;;;3.86;100.00
36378;BME280;22402;42.746;23.606;2022-11-15T06:47:33;93929.13;;;3.86;100.00
36378;BME280;22402;42.746;23.606;2022-11-15T06:49:58;93937.41;;;3.92;100.00
36378;BME280;22402;42.746;23.606;2022-11-15T06:52:23;93932.06;;;3.95;100.00
36378;BME280;22402;42.746;23.606;2022-11-15T06:54:49;93934.28;;;4.01;100.00
36378;BME280;22402;42.746;23.606;2022-11-15T06:57:14;93922.88;;;4.05;100.00
36378;BME280;22402;42.746;23.606;2022-11-15T06:59:39;93927.66;;;4.11;100.00
36378;BME280;22402;42.746;23.606;2022-11-15T07:02:05;93927.66;;;4.11;100.00
36378;BME280;22402;42.746;23.606;2022-11-15T07:04:30;93932.81;;;4.11;100.00
36378;BME280;22402;42.746;23.606;2022-11-15T07:06:55;93933.16;;;4.19;100.00
36378;BME280;22402;42.746;23.606;2022-11-15T07:09:21;93927.72;;;4.24;100.00
36378;BME280;22402;42.746;23.606;2022-11-15T07:11:46;93925.69;;;4.29;100.00
36378;BME280;22402;42.746;23.606;2022-11-15T07:14:11;93929.72;;;4.33;100.00
36378;BME280;22402;42.746;23.606;2022-11-15T07:16:37;93926.88;;;4.38;100.00
36378;BME280;22402;42.746;23.606;2022-11-15T07:19:02;93937.72;;;4.43;100.00
36378;BME280;22402;42.746;23.606;2022-11-15T07:21:27;93939.19;;;4.47;100.00
36378;BME280;22402;42.746;23.606;2022-11-15T07:23:52;93931.97;;;4.52;100.00
36378;BME280;22402;42.746;23.606;2022-11-15T07:26:18;93928.50;;;4.53;100.00
36378;BME280;22402;42.746;23.606;2022-11-15T07:28:43;93923.13;;;4.56;100.00
36378;BME280;22402;42.746;23.606;2022-11-15T07:31:08;93919.41;;;4.60;100.00
36378;BME280;22402;42.746;23.606;2022-11-15T07:33:34;93919.97;;;4.65;100.00
36378;BME280;22402;42.746;23.606;2022-11-15T07:35:59;93916.38;;;4.68;100.00
36378;BME280;22402;42.746;23.606;2022-11-15T07:38:25;93914.41;;;4.71;100.00
36378;BME280;22402;42.746;23.606;2022-11-15T07:40:55;93909.31;;;4.70;100.00
36378;BME280;22402;42.746;23.606;2022-11-15T07:43:20;93912.75;;;4.70;100.00
36378;BME280;22402;42.746;23.606;2022-11-15T07:45:46;93907.69;;;4.69;100.00
36378;BME280;22402;42.746;23.606;2022-11-15T07:48:11;93911.91;;;4.70;100.00
36378;BME280;22402;42.746;23.606;2022-11-15T07:50:36;93904.28;;;4.68;100.00
36378;BME280;22402;42.746;23.606;2022-11-15T07:53:02;93904.28;;;4.68;100.00
36378;BME280;22402;42.746;23.606;2022-11-15T07:55:27;93900.75;;;4.69;100.00
36378;BME280;22402;42.746;23.606;2022-11-15T07:57:53;93904.47;;;4.65;100.00
36378;BME280;22402;42.746;23.606;2022-11-15T08:00:18;93894.34;;;4.62;100.00
36378;BME280;22402;42.746;23.606;2022-11-15T08:02:46;93906.13;;;4.66;100.00
36378;BME280;22402;42.746;23.606;2022-11-15T08:05:11;93907.09;;;4.78;100.00
36378;BME280;22402;42.746;23.606;2022-11-15T08:07:37;93907.31;;;4.88;100.00
36378;BME280;22402;42.746;23.606;2022-11-15T08:10:02;93901.78;;;4.94;100.00
36378;BME280;22402;42.746;23.606;2022-11-15T08:12:28;93902.19;;;5.00;100.00
36378;BME280;22402;42.746;23.606;2022-11-15T08:14:53;93901.47;;;5.11;100.00
36378;BME280;22402;42.746;23.606;2022-11-15T08:17:18;93889.84;;;5.18;100.00
36378;BME280;22402;42.746;23.606;2022-11-15T08:19:43;93898.13;;;5.23;100.00
36378;BME280;22402;42.746;23.606;2022-11-15T08:22:08;93895.94;;;5.30;100.00
36378;BME280;22402;42.746;23.606;2022-11-15T08:24:34;93895.63;;;5.35;100.00
36378;BME280;22402;42.746;23.606;2022-11-15T08:26:59;93888.41;;;5.40;100.00
36378;BME280;22402;42.746;23.606;2022-11-15T08:29:24;93897.38;;;5.47;100.00
36378;BME280;22402;42.746;23.606;2022-11-15T08:31:49;93902.16;;;5.53;100.00
36378;BME280;22402;42.746;23.606;2022-11-15T08:34:14;93905.38;;;5.57;100.00
36378;BME280;22402;42.746;23.606;2022-11-15T08:36:40;93906.63;;;5.64;100.00
36378;BME280;22402;42.746;23.606;2022-11-15T08:39:05;93907.84;;;5.71;100.00
36378;BME280;22402;42.746;23.606;2022-11-15T08:41:31;93903.09;;;5.78;100.00
36378;BME280;22402;42.746;23.606;2022-11-15T08:43:58;93902.69;;;5.84;100.00
36378;BME280;22402;42.746;23.606;2022-11-15T08:46:23;93901.44;;;5.89;100.00
36378;BME280;22402;42.746;23.606;2022-11-15T08:48:48;93895.22;;;5.92;100.00
36378;BME280;22402;42.746;23.606;2022-11-15T08:51:13;93896.78;;;5.94;100.00
36378;BME280;22402;42.746;23.606;2022-11-15T08:53:39;93893.78;;;6.01;100.00
36378;BME280;22402;42.746;23.606;2022-11-15T08:56:08;93881.56;;;6.03;100.00
36378;BME280;22402;42.746;23.606;2022-11-15T08:58:33;93889.03;;;6.07;100.00
36378;BME280;22402;42.746;23.606;2022-11-15T09:00:59;93883.63;;;6.10;100.00
36378;BME280;22402;42.746;23.606;2022-11-15T09:03:24;93876.78;;;6.09;100.00
36378;BME280;22402;42.746;23.606;2022-11-15T09:05:53;93886.81;;;6.14;100.00
36378;BME280;22402;42.746;23.606;2022-11-15T09:08:19;93867.75;;;6.15;100.00
36378;BME280;22402;42.746;23.606;2022-11-15T09:10:44;93866.72;;;6.18;100.00
36378;BME280;22402;42.746;23.606;2022-11-15T09:13:09;93864.84;;;6.20;100.00
36378;BME280;22402;42.746;23.606;2022-11-15T09:15:34;93863.69;;;6.24;100.00
36378;BME280;22402;42.746;23.606;2022-11-15T09:17:59;93863.47;;;6.27;100.00
36378;BME280;22402;42.746;23.606;2022-11-15T09:20:25;93852.22;;;6.28;100.00
36378;BME280;22402;42.746;23.606;2022-11-15T09:22:50;93858.81;;;6.32;100.00
36378;BME280;22402;42.746;23.606;2022-11-15T09:25:15;93854.56;;;6.31;100.00
36378;BME280;22402;42.746;23.606;2022-11-15T09:27:40;93861.41;;;6.32;100.00
36378;BME280;22402;42.746;23.606;2022-11-15T09:30:06;93845.13;;;6.30;100.00
36378;BME280;22402;42.746;23.606;2022-11-15T09:32:31;93858.50;;;6.24;100.00
36378;BME280;22402;42.746;23.606;2022-11-15T09:34:56;93850.16;;;6.20;100.00
36378;BME280;22402;42.746;23.606;2022-11-15T09:37:22;93848.38;;;6.21;100.00
36378;BME280;22402;42.746;23.606;2022-11-15T09:39:47;93837.81;;;6.24;100.00
36378;BME280;22402;42.746;23.606;2022-11-15T09:44:42;93830.53;;;6.29;100.00
36378;BME280;22402;42.746;23.606;2022-11-15T09:47:31;93824.09;;;6.34;100.00
36378;BME280;22402;42.746;23.606;2022-11-15T09:50:00;93824.47;;;6.41;100.00
36378;BME280;22402;42.746;23.606;2022-11-15T09:52:27;93819.44;;;6.39;100.00
36378;BME280;22402;42.746;23.606;2022-11-15T09:54:52;93819.31;;;6.41;100.00
36378;BME280;22402;42.746;23.606;2022-11-15T09:57:28;93817.44;;;6.43;100.00
36378;BME280;22402;42.746;23.606;2022-11-15T09:59:59;93814.72;;;6.45;100.00
36378;BME280;22402;42.746;23.606;2022-11-15T10:02:42;93807.69;;;6.47;100.00
36378;BME280;22402;42.746;23.606;2022-11-15T10:05:11;93806.63;;;6.49;100.00
36378;BME280;22402;42.746;23.606;2022-11-15T10:07:44;93797.91;;;6.50;100.00
36378;BME280;22402;42.746;23.606;2022-11-15T10:13:17;93792.97;;;6.47;100.00
36378;BME280;22402;42.746;23.606;2022-11-15T10:15:44;93792.97;;;6.47;100.00
36378;BME280;22402;42.746;23.606;2022-11-15T10:18:15;93784.97;;;6.50;100.00
36378;BME280;22402;42.746;23.606;2022-11-15T10:20:44;93787.34;;;6.53;100.00
36378;BME280;22402;42.746;23.606;2022-11-15T10:23:11;93788.06;;;6.55;100.00
36378;BME280;22402;42.746;23.606;2022-11-15T10:25:38;93772.78;;;6.64;100.00
36378;BME280;22402;42.746;23.606;2022-11-15T10:30:39;93768.56;;;6.74;100.00
36378;BME280;22402;42.746;23.606;2022-11-15T10:33:17;93765.97;;;6.74;100.00
36378;BME280;22402;42.746;23.606;2022-11-15T10:35:44;93766.25;;;6.82;100.00
36378;BME280;22402;42.746;23.606;2022-11-15T10:38:10;93756.38;;;6.87;100.00
36378;BME280;22402;42.746;23.606;2022-11-15T10:40:36;93753.78;;;6.98;100.00
36378;BME280;22402;42.746;23.606;2022-11-15T10:45:30;93760.06;;;7.18;100.00
36378;BME280;22402;42.746;23.606;2022-11-15T10:50:37;93745.31;;;7.30;100.00
36378;BME280;22402;42.746;23.606;2022-11-15T10:53:02;93742.97;;;7.38;100.00
36378;BME280;22402;42.746;23.606;2022-11-15T10:55:29;93739.91;;;7.44;100.00
36378;BME280;22402;42.746;23.606;2022-11-15T10:58:38;93734.34;;;7.49;100.00
36378;BME280;22402;42.746;23.606;2022-11-15T11:00:44;93725.41;;;7.53;100.00
36378;BME280;22402;42.746;23.606;2022-11-15T11:03:30;93721.75;;;7.56;100.00
36378;BME280;22402;42.746;23.606;2022-11-15T11:06:06;93707.81;;;7.57;100.00
36378;BME280;22402;42.746;23.606;2022-11-15T11:08:32;93706.88;;;7.58;100.00
36378;BME280;22402;42.746;23.606;2022-11-15T11:10:58;93705.94;;;7.59;100.00
36378;BME280;22402;42.746;23.606;2022-11-15T11:13:27;93714.88;;;7.66;100.00
